Arklow Spray — C6VK8 — position and weather

sailwx.info

Track history (hours):
 
Tides and Currents Weather Stations Pressure Air Temp Water Temp Dewpoint Dewpoint Depression Visibility Wind Speed Wind Dir Waves Ship Positions

Arklow Spray

Last reported at 2016-Jul-01 00:33 UTC. Time now 2016-Jul-01 01:04 UTC.
Position N 49°58' W 002°60'.

Length 90 m; draft 4.1 m.

Type: Cargo ship. MMSI: 309914000.

Date/timePositionNaut miles runAvg speedWind from/ knotsBaromVisibWave heightAir tempDewpointWater temp
2016-Jul-01 00:33N 49°58' W 002°60'117 9.7
2016-Jun-30 12:33N 50°30' W 000°04'1111.1
2016-Jun-30 11:33N 50°32' E 000°13'56 9.3
2016-Jun-30 05:33N 51°04' E 001°26'10 9.8
2016-Jun-30 04:34N 51°10' E 001°38'1111.1
2016-Jun-30 03:33N 51°18' E 001°49'1111.3
2016-Jun-30 02:33N 51°27' E 001°59'1010.5
2016-Jun-30 01:33N 51°35' E 002°10'31 7.8
2016-Jun-29 21:32N 51°59' E 002°42'5 4.8
2016-Jun-29 20:33N 52°02' E 002°49'31 7.1
2016-Jun-29 16:06N 52°03' E 003°40'5 9.2
2016-Jun-29 15:33N 52°03' E 003°48'9 8.7
2016-Jun-29 14:33N 52°00' E 004°01'1211.7
2016-Jun-29 13:33N 51°54' E 004°17'5 4.5
2016-Jun-29 12:30N 51°55' E 004°25'0 0.0
2016-Jun-29 11:33N 51°55' E 004°25'0 0.0
2016-Jun-29 10:33N 51°55' E 004°25'0 0.0
2016-Jun-29 09:33N 51°55' E 004°25'0 0.0
2016-Jun-29 08:33N 51°55' E 004°25'0 0.1
2016-Jun-29 07:21N 51°55' E 004°25'0 0.0
2016-Jun-29 05:33N 51°55' E 004°25'0 0.0
2016-Jun-29 04:33N 51°55' E 004°25'0 0.0
2016-Jun-29 03:33N 51°55' E 004°25'1 0.6
2016-Jun-29 02:33N 51°54' E 004°25'8 7.6
2016-Jun-29 01:33N 51°56' E 004°13'7 7.2
2016-Jun-29 00:33N 51°59' E 004°02'9 8.6
2016-Jun-28 23:33N 52°03' E 003°50'1010.0
2016-Jun-28 22:30N 52°14' E 003°46'19 8.5
2016-Jun-28 20:17N 52°31' E 003°58'810.6
2016-Jun-28 19:33N 52°31' E 004°10'1111.0
2016-Jun-28 18:33N 52°29' E 004°28'6 6.3
2016-Jun-28 17:33N 52°28' E 004°38'8 7.4
2016-Jun-28 16:31N 52°25' E 004°50'0 0.0
2016-Jun-28 15:31N 52°25' E 004°50'0 0.0
2016-Jun-28 14:31N 52°25' E 004°50'0 0.0
2016-Jun-28 12:31N 52°25' E 004°50'0 0.0
2016-Jun-28 11:34N 52°25' E 004°50'0 0.0
2016-Jun-28 10:33N 52°25' E 004°50'0 0.0
2016-Jun-28 09:33N 52°25' E 004°50'0 0.0
2016-Jun-28 08:33N 52°25' E 004°50'0 0.0
2016-Jun-28 07:33N 52°25' E 004°50'0 0.0
2016-Jun-28 06:33N 52°25' E 004°50'0 0.0
2016-Jun-28 04:33N 52°25' E 004°50'0 0.0
2016-Jun-28 03:33N 52°25' E 004°50'0 0.0
2016-Jun-28 02:33N 52°25' E 004°50'0 0.0
2016-Jun-28 01:33N 52°25' E 004°50'0 0.3
2016-Jun-28 00:33N 52°25' E 004°50'8 8.3
2016-Jun-27 23:33N 52°28' E 004°38'4 4.5
2016-Jun-27 22:33N 52°28' E 004°30'8 7.8
2016-Jun-27 21:33N 52°29' E 004°18'6 6.0
2016-Jun-27 20:33N 52°28' E 004°08'0 0.0
2016-Jun-27 19:25N 52°28' E 004°08'0 0.0
2016-Jun-27 18:31N 52°28' E 004°08'0 0.1
2016-Jun-27 17:19N 52°28' E 004°08'0 0.1
2016-Jun-27 16:25N 52°28' E 004°08'0 0.0
2016-Jun-27 15:31N 52°28' E 004°08'0 0.0
2016-Jun-27 14:13N 52°28' E 004°08'0 0.0
2016-Jun-27 13:28N 52°28' E 004°08'0 0.1
2016-Jun-27 12:10N 52°28' E 004°08'0 0.0
2016-Jun-27 11:25N 52°28' E 004°08'0 0.0
2016-Jun-27 09:31N 52°28' E 004°08'0 0.0
2016-Jun-27 08:28N 52°28' E 004°08'0 0.1
2016-Jun-27 07:33N 52°28' E 004°08'90 9.8
2016-Jun-26 22:24N 51°30' E 002°16'910.2
2016-Jun-26 21:34N 51°23' E 002°08'1010.4
2016-Jun-26 20:34N 51°14' E 002°02'1111.2
2016-Jun-26 19:33N 51°07' E 001°48'1111.4
2016-Jun-26 18:33N 50°60' E 001°34'5511.1
2016-Jun-26 13:33N 50°24' E 000°27'1312.8
2016-Jun-26 12:33N 50°21' E 000°07'1312.9
2016-Jun-26 11:31N 50°17' W 000°13'101 9.7
2016-Jun-26 01:08N 49°51' W 002°44'1811.4
2016-Jun-25 23:34N 49°51' W 003°12'1211.6
2016-Jun-25 22:33N 49°51' W 003°30'2711.5
2016-Jun-25 20:14N 49°52' W 004°12'811.3
2016-Jun-25 19:31N 49°52' W 004°24'153 8.1
2016-Jun-25 00:33N 52°15' W 005°53'9 9.0
2016-Jun-24 23:34N 52°24' W 005°52'  
2016-Jun-22 06:33N 52°29' W 005°56'1111.1
2016-Jun-22 05:34N 52°17' W 005°57'9 9.0
2016-Jun-22 04:33N 52°09' W 005°60'8 8.0
2016-Jun-22 03:33N 52°03' W 006°09'8 8.5
2016-Jun-22 02:33N 52°00' W 006°22'9 9.1
2016-Jun-22 01:31N 51°58' W 006°37'1010.1
2016-Jun-22 00:33N 51°56' W 006°52'1010.3
2016-Jun-21 23:33N 51°53' W 007°08'1010.4
2016-Jun-21 22:33N 51°51' W 007°25'1110.5
2016-Jun-21 21:33N 51°48' W 007°41'1110.7
2016-Jun-21 20:34N 51°46' W 007°58'1110.6
2016-Jun-21 19:33N 51°47' W 008°15'8 8.4
2016-Jun-21 18:33N 51°54' W 008°23'3 2.6
2016-Jun-21 17:29N 51°54' W 008°27'0 0.0
2016-Jun-21 16:26N 51°54' W 008°27'0 0.0
2016-Jun-21 15:17N 51°54' W 008°27'0 0.0
2016-Jun-21 14:23N 51°54' W 008°27'0 0.0
2016-Jun-21 12:20N 51°54' W 008°27'0 0.0
2016-Jun-21 11:23N 51°54' W 008°27'0 0.0
2016-Jun-21 08:05N 51°54' W 008°27'0 0.0
2016-Jun-21 05:33N 51°54' W 008°27'6 6.5
2016-Jun-21 04:33N 51°51' W 008°18'7 7.4
2016-Jun-21 03:33N 51°45' W 008°10'1010.1
2016-Jun-21 02:33N 51°44' W 007°54'10 9.6
2016-Jun-21 01:33N 51°45' W 007°38'  
Track history (hours):
 
Tides and Currents Weather Stations Pressure Air Temp Water Temp Dewpoint Dewpoint Depression Visibility Wind Speed Wind Dir Waves Ship Positions

Arklow Spray

Last reported at 2016-Jul-01 00:33 UTC. Time now 2016-Jul-01 01:04 UTC.
Position N 49°58' W 002°60'.

Length 90 m; draft 4.1 m.

Type: Cargo ship. MMSI: 309914000.

Date/timePositionNaut miles runAvg speedWind from/ knotsBaromVisibWave heightAir tempDewpointWater temp
2016-Jul-01 00:33N 49°58' W 002°60'117 9.7
2016-Jun-30 12:33N 50°30' W 000°04'1111.1
2016-Jun-30 11:33N 50°32' E 000°13'56 9.3
2016-Jun-30 05:33N 51°04' E 001°26'10 9.8
2016-Jun-30 04:34N 51°10' E 001°38'1111.1
2016-Jun-30 03:33N 51°18' E 001°49'1111.3
2016-Jun-30 02:33N 51°27' E 001°59'1010.5
2016-Jun-30 01:33N 51°35' E 002°10'31 7.8
2016-Jun-29 21:32N 51°59' E 002°42'5 4.8
2016-Jun-29 20:33N 52°02' E 002°49'31 7.1
2016-Jun-29 16:06N 52°03' E 003°40'5 9.2
2016-Jun-29 15:33N 52°03' E 003°48'9 8.7
2016-Jun-29 14:33N 52°00' E 004°01'1211.7
2016-Jun-29 13:33N 51°54' E 004°17'5 4.5
2016-Jun-29 12:30N 51°55' E 004°25'0 0.0
2016-Jun-29 11:33N 51°55' E 004°25'0 0.0
2016-Jun-29 10:33N 51°55' E 004°25'0 0.0
2016-Jun-29 09:33N 51°55' E 004°25'0 0.0
2016-Jun-29 08:33N 51°55' E 004°25'0 0.1
2016-Jun-29 07:21N 51°55' E 004°25'0 0.0
2016-Jun-29 05:33N 51°55' E 004°25'0 0.0
2016-Jun-29 04:33N 51°55' E 004°25'0 0.0
2016-Jun-29 03:33N 51°55' E 004°25'1 0.6
2016-Jun-29 02:33N 51°54' E 004°25'8 7.6
2016-Jun-29 01:33N 51°56' E 004°13'7 7.2
2016-Jun-29 00:33N 51°59' E 004°02'9 8.6
2016-Jun-28 23:33N 52°03' E 003°50'1010.0
2016-Jun-28 22:30N 52°14' E 003°46'19 8.5
2016-Jun-28 20:17N 52°31' E 003°58'810.6
2016-Jun-28 19:33N 52°31' E 004°10'1111.0
2016-Jun-28 18:33N 52°29' E 004°28'6 6.3
2016-Jun-28 17:33N 52°28' E 004°38'8 7.4
2016-Jun-28 16:31N 52°25' E 004°50'0 0.0
2016-Jun-28 15:31N 52°25' E 004°50'0 0.0
2016-Jun-28 14:31N 52°25' E 004°50'0 0.0
2016-Jun-28 12:31N 52°25' E 004°50'0 0.0
2016-Jun-28 11:34N 52°25' E 004°50'0 0.0
2016-Jun-28 10:33N 52°25' E 004°50'0 0.0
2016-Jun-28 09:33N 52°25' E 004°50'0 0.0
2016-Jun-28 08:33N 52°25' E 004°50'0 0.0
2016-Jun-28 07:33N 52°25' E 004°50'0 0.0
2016-Jun-28 06:33N 52°25' E 004°50'0 0.0
2016-Jun-28 04:33N 52°25' E 004°50'0 0.0
2016-Jun-28 03:33N 52°25' E 004°50'0 0.0
2016-Jun-28 02:33N 52°25' E 004°50'0 0.0
2016-Jun-28 01:33N 52°25' E 004°50'0 0.3
2016-Jun-28 00:33N 52°25' E 004°50'8 8.3
2016-Jun-27 23:33N 52°28' E 004°38'4 4.5
2016-Jun-27 22:33N 52°28' E 004°30'8 7.8
2016-Jun-27 21:33N 52°29' E 004°18'6 6.0
2016-Jun-27 20:33N 52°28' E 004°08'0 0.0
2016-Jun-27 19:25N 52°28' E 004°08'0 0.0
2016-Jun-27 18:31N 52°28' E 004°08'0 0.1
2016-Jun-27 17:19N 52°28' E 004°08'0 0.1
2016-Jun-27 16:25N 52°28' E 004°08'0 0.0
2016-Jun-27 15:31N 52°28' E 004°08'0 0.0
2016-Jun-27 14:13N 52°28' E 004°08'0 0.0
2016-Jun-27 13:28N 52°28' E 004°08'0 0.1
2016-Jun-27 12:10N 52°28' E 004°08'0 0.0
2016-Jun-27 11:25N 52°28' E 004°08'0 0.0
2016-Jun-27 09:31N 52°28' E 004°08'0 0.0
2016-Jun-27 08:28N 52°28' E 004°08'0 0.1
2016-Jun-27 07:33N 52°28' E 004°08'90 9.8
2016-Jun-26 22:24N 51°30' E 002°16'910.2
2016-Jun-26 21:34N 51°23' E 002°08'1010.4
2016-Jun-26 20:34N 51°14' E 002°02'1111.2
2016-Jun-26 19:33N 51°07' E 001°48'1111.4
2016-Jun-26 18:33N 50°60' E 001°34'5511.1
2016-Jun-26 13:33N 50°24' E 000°27'1312.8
2016-Jun-26 12:33N 50°21' E 000°07'1312.9
2016-Jun-26 11:31N 50°17' W 000°13'101 9.7
2016-Jun-26 01:08N 49°51' W 002°44'1811.4
2016-Jun-25 23:34N 49°51' W 003°12'1211.6
2016-Jun-25 22:33N 49°51' W 003°30'2711.5
2016-Jun-25 20:14N 49°52' W 004°12'811.3
2016-Jun-25 19:31N 49°52' W 004°24'153 8.1
2016-Jun-25 00:33N 52°15' W 005°53'9 9.0
2016-Jun-24 23:34N 52°24' W 005°52'  
2016-Jun-22 06:33N 52°29' W 005°56'1111.1
2016-Jun-22 05:34N 52°17' W 005°57'9 9.0
2016-Jun-22 04:33N 52°09' W 005°60'8 8.0
2016-Jun-22 03:33N 52°03' W 006°09'8 8.5
2016-Jun-22 02:33N 52°00' W 006°22'9 9.1
2016-Jun-22 01:31N 51°58' W 006°37'1010.1
2016-Jun-22 00:33N 51°56' W 006°52'1010.3
2016-Jun-21 23:33N 51°53' W 007°08'1010.4
2016-Jun-21 22:33N 51°51' W 007°25'1110.5
2016-Jun-21 21:33N 51°48' W 007°41'1110.7
2016-Jun-21 20:34N 51°46' W 007°58'1110.6
2016-Jun-21 19:33N 51°47' W 008°15'8 8.4
2016-Jun-21 18:33N 51°54' W 008°23'3 2.6
2016-Jun-21 17:29N 51°54' W 008°27'0 0.0
2016-Jun-21 16:26N 51°54' W 008°27'0 0.0
2016-Jun-21 15:17N 51°54' W 008°27'0 0.0
2016-Jun-21 14:23N 51°54' W 008°27'0 0.0
2016-Jun-21 12:20N 51°54' W 008°27'0 0.0
2016-Jun-21 11:23N 51°54' W 008°27'0 0.0
2016-Jun-21 08:05N 51°54' W 008°27'0 0.0
2016-Jun-21 05:33N 51°54' W 008°27'6 6.5
2016-Jun-21 04:33N 51°51' W 008°18'7 7.4
2016-Jun-21 03:33N 51°45' W 008°10'1010.1
2016-Jun-21 02:33N 51°44' W 007°54'10 9.6
2016-Jun-21 01:33N 51°45' W 007°38'  

Dump ship's entire track history